createdAt,value
2022-10-25T00:00:42.636Z,4.20
2022-10-25T00:03:14.710Z,8.02
2022-10-25T00:05:45.913Z,6.80
2022-10-25T00:08:16.277Z,4.35
2022-10-25T00:10:46.572Z,4.15
2022-10-25T00:13:16.498Z,6.30
2022-10-25T00:15:46.428Z,5.38
2022-10-25T00:18:16.270Z,4.30
2022-10-25T00:20:48.009Z,3.65
2022-10-25T00:23:19.522Z,6.00
2022-10-25T00:25:49.648Z,4.80
2022-10-25T00:28:19.483Z,6.88
2022-10-25T00:30:49.492Z,8.18
2022-10-25T00:33:19.459Z,7.07
2022-10-25T00:35:49.546Z,6.22
2022-10-25T00:38:19.549Z,5.93
2022-10-25T00:40:50.104Z,8.15
2022-10-25T00:43:36.704Z,8.32
2022-10-25T00:46:32.004Z,4.03
2022-10-25T00:49:08.392Z,6.07
2022-10-25T00:51:47.592Z,8.23
2022-10-25T00:54:25.465Z,6.53
2022-10-25T00:56:56.865Z,6.70
2022-10-25T00:59:30.033Z,5.13
2022-10-25T01:02:00.605Z,6.35
2022-10-25T01:04:33.284Z,11.05
2022-10-25T01:07:04.591Z,8.80
2022-10-25T01:09:38.881Z,6.35
2022-10-25T01:12:09.034Z,10.63
2022-10-25T01:14:44.682Z,5.57
2022-10-25T01:17:44.932Z,6.57
2022-10-25T01:20:33.396Z,6.13
2022-10-25T01:23:35.463Z,6.13
2022-10-25T01:26:34.423Z,6.65
2022-10-25T01:29:36.524Z,4.88
2022-10-25T01:32:28.535Z,6.63
2022-10-25T01:35:09.932Z,4.68
2022-10-25T01:37:58.643Z,4.22
2022-10-25T01:40:41.024Z,5.47
2022-10-25T01:43:37.100Z,5.57
2022-10-25T01:46:17.974Z,8.07
2022-10-25T01:48:51.752Z,6.43
2022-10-25T01:51:22.255Z,4.70
2022-10-25T01:53:54.182Z,8.55
2022-10-25T01:56:33.190Z,6.38
2022-10-25T01:59:16.301Z,6.20
2022-10-25T02:02:02.443Z,5.38
2022-10-25T02:05:05.956Z,13.85
2022-10-25T02:07:38.927Z,6.38
2022-10-25T02:10:11.024Z,7.57
2022-10-25T02:12:58.928Z,10.10
2022-10-25T02:15:54.501Z,6.13
2022-10-25T02:21:07.833Z,12.10
2022-10-25T02:23:39.518Z,9.38
2022-10-25T02:26:12.800Z,12.07
2022-10-25T02:28:43.699Z,9.02
2022-10-25T02:31:18.054Z,6.47
2022-10-25T02:33:49.379Z,5.97
2022-10-25T02:36:25.474Z,9.63
2022-10-25T02:38:56.783Z,8.48
2022-10-25T02:41:27.181Z,7.68
2022-10-25T02:43:57.363Z,10.50
2022-10-25T02:46:27.745Z,8.07
2022-10-25T02:48:57.591Z,4.95
2022-10-25T02:51:27.546Z,7.65
2022-10-25T02:53:57.404Z,6.22
2022-10-25T02:56:27.242Z,8.60
2022-10-25T02:58:59.377Z,9.73
2022-10-25T03:04:00.447Z,8.98
2022-10-25T03:06:30.249Z,5.57
2022-10-25T03:09:00.038Z,7.22
2022-10-25T03:11:29.979Z,7.30
2022-10-25T03:13:59.779Z,10.65
2022-10-25T03:16:30.944Z,10.23
2022-10-25T03:19:01.514Z,7.68
2022-10-25T03:21:31.323Z,8.25
2022-10-25T03:24:01.640Z,6.40
2022-10-25T03:26:31.445Z,6.97
2022-10-25T03:29:01.627Z,8.88
2022-10-25T03:31:31.442Z,6.05
2022-10-25T03:34:01.303Z,5.00
2022-10-25T03:36:31.153Z,7.80
2022-10-25T03:39:01.452Z,7.63
2022-10-25T03:41:31.290Z,5.97
2022-10-25T03:44:01.443Z,6.05
2022-10-25T03:46:31.286Z,6.57
2022-10-25T03:49:01.244Z,7.30
2022-10-25T03:51:31.120Z,12.20
2022-10-25T03:54:01.021Z,6.03
2022-10-25T03:56:30.891Z,6.60
2022-10-25T03:59:00.875Z,5.43
2022-10-25T04:01:30.884Z,6.68
2022-10-25T04:04:00.730Z,6.95
2022-10-25T04:06:30.596Z,7.32
2022-10-25T04:09:00.439Z,7.18
2022-10-25T04:11:30.753Z,5.82
2022-10-25T04:14:00.596Z,6.68
2022-10-25T04:16:30.898Z,5.68
2022-10-25T04:19:01.055Z,6.90
2022-10-25T04:21:30.873Z,5.10
2022-10-25T04:24:04.302Z,8.43
2022-10-25T04:26:37.797Z,6.57
2022-10-25T04:29:08.088Z,7.40
2022-10-25T04:31:38.371Z,10.15
2022-10-25T04:34:08.212Z,6.88
2022-10-25T04:36:38.048Z,7.47
2022-10-25T04:39:07.927Z,4.25
2022-10-25T04:41:38.869Z,5.32
2022-10-25T04:44:09.349Z,8.85
2022-10-25T04:46:39.365Z,7.30
2022-10-25T04:49:09.205Z,6.50
2022-10-25T04:51:40.011Z,5.40
2022-10-25T04:54:10.002Z,5.63
2022-10-25T04:56:40.286Z,5.35
2022-10-25T04:59:11.296Z,5.15
2022-10-25T05:01:41.633Z,5.90
2022-10-25T05:04:11.570Z,5.70
2022-10-25T05:06:42.430Z,8.15
2022-10-25T05:09:13.032Z,4.95
2022-10-25T05:11:43.088Z,7.82
2022-10-25T05:14:12.936Z,5.65
2022-10-25T05:16:43.656Z,3.88
2022-10-25T05:19:13.524Z,10.02
2022-10-25T05:21:44.371Z,5.50
2022-10-25T05:24:14.866Z,4.85
2022-10-25T05:26:45.067Z,9.73
2022-10-25T05:29:15.115Z,8.68
2022-10-25T05:31:45.075Z,5.50
2022-10-25T05:34:14.894Z,5.57
2022-10-25T05:36:45.200Z,6.55
2022-10-25T05:39:15.374Z,4.47
2022-10-25T05:41:45.226Z,6.63
2022-10-25T05:44:16.136Z,8.07
2022-10-25T05:46:47.087Z,6.20
2022-10-25T05:49:17.604Z,6.13
2022-10-25T05:51:47.459Z,8.80
2022-10-25T05:54:17.858Z,5.80
2022-10-25T05:56:47.732Z,6.53
2022-10-25T05:59:17.605Z,5.30
2022-10-25T06:01:48.748Z,4.18
2022-10-25T06:04:19.784Z,5.00
2022-10-25T06:06:50.031Z,6.32
2022-10-25T06:09:19.868Z,5.32
2022-10-25T06:11:49.704Z,5.07
2022-10-25T06:14:19.544Z,6.38
2022-10-25T06:16:49.893Z,5.75
2022-10-25T06:19:19.798Z,6.13
2022-10-25T06:21:50.028Z,5.53
2022-10-25T06:24:19.843Z,4.95
2022-10-25T06:26:49.943Z,5.97
2022-10-25T06:29:19.816Z,6.00
2022-10-25T06:31:50.718Z,9.35
2022-10-25T06:34:21.684Z,10.25
2022-10-25T06:36:52.036Z,5.25
2022-10-25T06:39:21.896Z,4.32
2022-10-25T06:41:51.716Z,7.20
2022-10-25T06:44:21.633Z,7.15
2022-10-25T06:47:16.370Z,8.93
2022-10-25T06:49:41.839Z,5.00
2022-10-25T06:52:12.122Z,6.28
2022-10-25T06:54:41.940Z,6.05
2022-10-25T06:57:11.779Z,5.63
2022-10-25T06:59:41.592Z,7.45
2022-10-25T07:02:11.954Z,7.70
2022-10-25T07:04:42.192Z,8.15
2022-10-25T07:07:15.971Z,5.50
2022-10-25T07:09:46.218Z,5.50
2022-10-25T07:12:16.375Z,6.47
2022-10-25T07:14:46.659Z,5.47
2022-10-25T07:17:16.471Z,7.68
2022-10-25T07:19:46.285Z,6.10
2022-10-25T07:22:16.388Z,5.80
2022-10-25T07:24:46.517Z,6.55
2022-10-25T07:27:16.865Z,7.38
2022-10-25T07:29:47.308Z,5.45
2022-10-25T07:32:17.723Z,6.28
2022-10-25T07:34:48.510Z,5.25
2022-10-25T07:37:18.379Z,5.80
2022-10-25T07:39:48.852Z,5.63
2022-10-25T07:42:19.198Z,6.65
2022-10-25T07:44:49.022Z,4.90
2022-10-25T07:47:18.846Z,5.03
2022-10-25T07:49:48.742Z,4.80
2022-10-25T07:52:18.975Z,5.95
2022-10-25T07:54:48.755Z,6.15
2022-10-25T07:57:19.119Z,7.68
2022-10-25T07:59:49.016Z,5.03
2022-10-25T08:02:21.827Z,5.45
2022-10-25T08:04:54.436Z,5.22
2022-10-25T08:07:24.685Z,6.93
2022-10-25T08:09:54.559Z,4.97
2022-10-25T08:12:24.466Z,6.20
2022-10-25T08:14:54.421Z,4.78
2022-10-25T08:17:24.655Z,9.32
2022-10-25T08:19:54.995Z,6.22
2022-10-25T08:22:24.871Z,5.60
2022-10-25T08:24:54.714Z,6.60
2022-10-25T08:27:24.635Z,5.43
2022-10-25T08:29:54.931Z,4.35
2022-10-25T08:32:25.003Z,6.70
2022-10-25T08:34:54.802Z,5.30
2022-10-25T08:37:24.670Z,7.25
2022-10-25T08:39:55.687Z,4.22
2022-10-25T08:42:57.847Z,8.32
2022-10-25T08:45:39.754Z,5.32
2022-10-25T08:48:18.999Z,6.65
2022-10-25T08:50:57.772Z,4.45
2022-10-25T08:53:34.024Z,5.65
2022-10-25T08:56:16.188Z,5.18
2022-10-25T08:58:58.399Z,6.30
2022-10-25T09:01:58.765Z,5.63
2022-10-25T09:04:31.162Z,5.45
2022-10-25T09:07:12.060Z,5.38
2022-10-25T09:10:23.376Z,4.88
2022-10-25T09:13:27.462Z,4.57
2022-10-25T09:16:18.804Z,5.70
2022-10-25T09:18:53.846Z,4.50
2022-10-25T09:21:43.828Z,5.28
2022-10-25T09:24:34.793Z,5.13
2022-10-25T09:27:08.923Z,6.80
2022-10-25T09:29:45.708Z,7.80
2022-10-25T09:32:49.411Z,7.10
2022-10-25T09:35:35.007Z,5.10
2022-10-25T09:38:19.589Z,5.25
2022-10-25T09:41:20.430Z,7.53
2022-10-25T09:44:00.361Z,5.28
2022-10-25T09:46:41.214Z,6.35
2022-10-25T09:49:23.258Z,4.97
2022-10-25T09:52:00.350Z,4.78
2022-10-25T09:54:54.435Z,5.00
2022-10-25T09:57:24.763Z,6.20
2022-10-25T09:59:54.935Z,4.95
2022-10-25T10:02:27.442Z,8.23
2022-10-25T10:04:57.753Z,7.00
2022-10-25T10:07:38.466Z,5.13
2022-10-25T10:10:14.481Z,6.72
2022-10-25T10:12:56.831Z,4.90
2022-10-25T10:15:55.261Z,5.70
2022-10-25T10:18:35.331Z,9.63
2022-10-25T10:21:07.502Z,6.75
2022-10-25T10:23:57.327Z,6.15
2022-10-25T10:26:44.770Z,7.35
2022-10-25T10:29:19.756Z,5.28
2022-10-25T10:31:55.823Z,6.20
2022-10-25T10:34:43.047Z,8.85
2022-10-25T10:37:24.387Z,8.82
2022-10-25T10:40:02.132Z,5.70
2022-10-25T10:42:35.898Z,7.13
2022-10-25T10:45:09.407Z,5.93
2022-10-25T10:47:45.312Z,5.82
2022-10-25T10:50:25.916Z,10.23
2022-10-25T10:53:04.063Z,8.88
2022-10-25T10:55:43.207Z,6.03
2022-10-25T10:58:30.242Z,8.32
2022-10-25T11:01:13.673Z,5.80
2022-10-25T11:03:53.828Z,7.07
2022-10-25T11:06:36.400Z,7.68
2022-10-25T11:09:23.312Z,9.10
2022-10-25T11:12:18.764Z,9.23
2022-10-25T11:14:49.348Z,10.23
2022-10-25T11:17:24.750Z,8.70
2022-10-25T11:20:15.490Z,6.20
2022-10-25T11:22:58.918Z,8.07
2022-10-25T11:25:37.004Z,10.93
2022-10-25T11:28:27.813Z,7.53
2022-10-25T11:31:22.939Z,8.07
2022-10-25T11:34:30.079Z,9.18
2022-10-25T11:37:09.114Z,5.25
2022-10-25T11:39:44.704Z,2.65
2022-10-25T11:42:25.629Z,5.40
2022-10-25T11:45:20.936Z,6.18
2022-10-25T11:48:09.171Z,2.83
2022-10-25T11:50:59.103Z,4.28
2022-10-25T11:53:46.945Z,6.43
2022-10-25T11:56:25.868Z,4.32
2022-10-25T11:59:16.345Z,5.70
2022-10-25T12:02:04.642Z,3.33
2022-10-25T12:04:46.865Z,4.63
2022-10-25T12:07:35.864Z,4.40
2022-10-25T12:10:34.261Z,5.78
2022-10-25T12:13:28.756Z,5.70
2022-10-25T12:16:00.298Z,5.95
2022-10-25T12:19:03.136Z,4.03
2022-10-25T12:21:49.471Z,6.07
2022-10-25T12:24:44.205Z,4.28
2022-10-25T12:27:17.917Z,9.88
2022-10-25T12:29:58.654Z,3.63
2022-10-25T12:35:09.255Z,4.07
2022-10-25T12:37:45.055Z,4.97
2022-10-25T12:40:20.447Z,3.97
2022-10-25T12:42:56.957Z,3.78
2022-10-25T12:45:43.732Z,9.38
2022-10-25T12:48:29.393Z,8.70
2022-10-25T12:51:18.843Z,6.78
2022-10-25T12:54:12.971Z,5.70
2022-10-25T12:57:12.669Z,7.57
2022-10-25T12:59:56.144Z,6.10
2022-10-25T13:02:59.460Z,10.52
2022-10-25T13:05:59.090Z,7.85
2022-10-25T13:08:30.837Z,3.78
2022-10-25T13:11:06.112Z,5.93
2022-10-25T13:14:02.940Z,4.90
2022-10-25T13:16:35.445Z,8.02
2022-10-25T13:19:53.087Z,4.65
2022-10-25T13:22:37.408Z,7.07
2022-10-25T13:25:39.878Z,8.27
2022-10-25T13:28:13.144Z,5.57
2022-10-25T13:30:44.895Z,4.53
2022-10-25T13:33:29.024Z,5.45
2022-10-25T13:36:02.849Z,6.13
2022-10-25T13:38:39.372Z,3.72
2022-10-25T13:41:17.391Z,5.85
2022-10-25T13:44:00.795Z,10.15
2022-10-25T13:46:42.290Z,7.50
2022-10-25T13:49:33.181Z,5.97
2022-10-25T13:52:07.610Z,5.60
2022-10-25T13:54:51.248Z,4.05
2022-10-25T13:57:53.501Z,3.67
2022-10-25T14:00:37.770Z,3.97
2022-10-25T14:03:28.706Z,4.72
2022-10-25T14:05:58.716Z,6.50
2022-10-25T14:08:40.764Z,4.07
2022-10-25T14:11:26.750Z,7.35
2022-10-25T14:14:16.907Z,3.75
2022-10-25T14:17:14.051Z,3.55
2022-10-25T14:19:53.728Z,3.75
2022-10-25T14:22:42.569Z,6.38
2022-10-25T14:25:25.944Z,4.70
2022-10-25T14:28:12.511Z,5.40
2022-10-25T14:30:47.787Z,4.55
2022-10-25T14:33:39.283Z,4.32
2022-10-25T14:36:30.014Z,6.22
2022-10-25T14:39:02.377Z,2.97
2022-10-25T14:41:35.402Z,4.25
2022-10-25T14:44:21.310Z,5.80
2022-10-25T14:46:51.799Z,4.00
2022-10-25T14:49:22.159Z,4.22
2022-10-25T14:52:12.299Z,4.53
2022-10-25T14:54:43.654Z,3.65
2022-10-25T14:57:13.803Z,4.60
2022-10-25T14:59:53.655Z,4.70
2022-10-25T15:02:29.687Z,3.95
2022-10-25T15:05:01.852Z,6.15
2022-10-25T15:07:36.683Z,9.63
2022-10-25T15:10:08.028Z,6.90
2022-10-25T15:12:38.484Z,2.50
2022-10-25T15:15:37.855Z,3.38
2022-10-25T15:18:27.232Z,3.45
2022-10-25T15:21:16.463Z,3.13
2022-10-25T15:24:13.963Z,2.47
2022-10-25T15:26:56.135Z,3.20
2022-10-25T15:29:43.628Z,2.75
2022-10-25T15:32:15.337Z,3.10
2022-10-25T15:34:48.589Z,2.70
2022-10-25T15:37:20.488Z,2.30
2022-10-25T15:39:53.353Z,10.63
2022-10-25T15:42:27.852Z,2.08
2022-10-25T15:44:58.173Z,1.48
2022-10-25T15:47:35.719Z,4.28
2022-10-25T15:50:23.871Z,1.52
2022-10-25T15:52:55.168Z,1.58
2022-10-25T15:55:34.204Z,1.27
2022-10-25T15:58:08.297Z,2.00
2022-10-25T16:00:40.683Z,1.92
2022-10-25T16:03:26.008Z,1.67
2022-10-25T16:05:56.492Z,6.40
2022-10-25T16:08:27.385Z,2.30
2022-10-25T16:10:58.286Z,4.82
2022-10-25T16:13:38.345Z,3.20
2022-10-25T16:16:28.093Z,2.40
2022-10-25T16:19:01.221Z,2.70
2022-10-25T16:21:33.579Z,2.72
2022-10-25T16:24:03.727Z,4.32
2022-10-25T16:26:43.164Z,2.17
2022-10-25T16:29:21.215Z,1.42
2022-10-25T16:31:51.240Z,1.67
2022-10-25T16:34:22.138Z,0.80
2022-10-25T16:36:53.919Z,2.38
2022-10-25T16:39:24.462Z,3.65
2022-10-25T16:41:56.171Z,0.88
2022-10-25T16:44:26.328Z,1.42
2022-10-25T16:46:56.463Z,2.67
2022-10-25T16:49:26.571Z,1.08
2022-10-25T16:51:56.408Z,1.65
2022-10-25T16:54:26.291Z,2.72
2022-10-25T16:56:56.158Z,8.77
2022-10-25T16:59:26.242Z,2.88
2022-10-25T17:01:57.003Z,2.72
2022-10-25T17:04:28.013Z,1.40
2022-10-25T17:06:58.117Z,3.13
2022-10-25T17:09:27.981Z,3.38
2022-10-25T17:11:57.794Z,1.80
2022-10-25T17:14:27.820Z,3.40
2022-10-25T17:17:02.296Z,2.13
2022-10-25T17:19:33.621Z,1.95
2022-10-25T17:22:03.465Z,1.13
2022-10-25T17:24:37.202Z,2.60
2022-10-25T17:27:09.448Z,1.55
2022-10-25T17:29:39.723Z,1.10
2022-10-25T17:32:09.560Z,1.67
2022-10-25T17:34:39.391Z,5.32
2022-10-25T17:37:09.167Z,0.80
2022-10-25T17:39:39.347Z,1.50
2022-10-25T17:42:09.224Z,1.42
2022-10-25T17:44:39.557Z,2.97
2022-10-25T17:47:09.419Z,1.67
2022-10-25T17:49:39.939Z,1.92
2022-10-25T17:52:11.021Z,2.67
2022-10-25T17:54:42.405Z,2.83
2022-10-25T17:57:12.619Z,3.00
2022-10-25T17:59:42.733Z,2.67
2022-10-25T18:02:13.553Z,1.40
2022-10-25T18:05:01.161Z,1.00
2022-10-25T18:07:36.030Z,2.03
2022-10-25T18:10:08.103Z,2.35
2022-10-25T18:12:38.169Z,3.35
2022-10-25T18:15:08.470Z,1.50
2022-10-25T18:17:38.745Z,2.33
2022-10-25T18:20:09.635Z,1.80
2022-10-25T18:22:39.464Z,1.50
2022-10-25T18:25:09.807Z,1.42
2022-10-25T18:27:39.644Z,0.90
2022-10-25T18:30:10.583Z,1.52
2022-10-25T18:32:40.763Z,1.00
2022-10-25T18:35:11.083Z,1.20
2022-10-25T18:37:40.968Z,2.53
2022-10-25T18:40:12.496Z,1.98
2022-10-25T18:42:43.179Z,1.70
2022-10-25T18:45:13.667Z,1.65
2022-10-25T18:47:43.531Z,1.40
2022-10-25T18:50:14.273Z,1.63
2022-10-25T18:52:44.355Z,1.27
2022-10-25T18:55:15.035Z,1.33
2022-10-25T18:57:45.626Z,0.80
2022-10-25T19:00:16.485Z,1.67
2022-10-25T19:02:46.534Z,1.15
2022-10-25T19:05:16.461Z,3.28
2022-10-25T19:07:46.763Z,1.40
2022-10-25T19:10:17.289Z,1.02
2022-10-25T19:12:47.747Z,3.65
2022-10-25T19:15:17.615Z,1.50
2022-10-25T19:17:53.121Z,2.60
2022-10-25T19:20:23.298Z,1.05
2022-10-25T19:22:54.498Z,1.48
2022-10-25T19:25:27.264Z,1.35
2022-10-25T19:27:58.026Z,0.98
2022-10-25T19:30:28.293Z,1.80
2022-10-25T19:32:58.269Z,2.90
2022-10-25T19:35:29.754Z,1.80
2022-10-25T19:40:29.666Z,2.67
2022-10-25T19:42:59.805Z,2.15
2022-10-25T19:45:30.121Z,1.27
2022-10-25T19:48:00.197Z,2.30
2022-10-25T19:50:30.604Z,1.42
2022-10-25T19:53:00.710Z,3.47
2022-10-25T19:55:30.531Z,1.40
2022-10-25T19:58:00.418Z,1.90
2022-10-25T20:00:30.320Z,1.98
2022-10-25T20:03:00.146Z,11.70
2022-10-25T20:05:30.790Z,1.83
2022-10-25T20:08:00.625Z,5.22
2022-10-25T20:10:30.801Z,4.90
2022-10-25T20:13:00.744Z,4.10
2022-10-25T20:15:30.570Z,4.22
2022-10-25T20:18:00.371Z,3.47
2022-10-25T20:20:30.158Z,2.47
2022-10-25T20:23:00.141Z,4.80
2022-10-25T20:25:29.974Z,4.82
2022-10-25T20:28:03.492Z,2.97
2022-10-25T20:30:36.506Z,7.43
2022-10-25T20:33:10.698Z,3.10
2022-10-25T20:35:43.107Z,3.30
2022-10-25T20:38:13.701Z,3.88
2022-10-25T20:40:45.316Z,2.13
2022-10-25T20:43:16.439Z,2.85
2022-10-25T20:45:49.513Z,2.83
2022-10-25T20:48:19.443Z,4.75
2022-10-25T20:50:50.901Z,4.13
2022-10-25T20:53:22.250Z,1.73
2022-10-25T20:55:52.730Z,2.08
2022-10-25T20:58:23.943Z,3.15
2022-10-25T21:00:56.309Z,4.15
2022-10-25T21:03:28.389Z,4.10
2022-10-25T21:06:01.032Z,1.92
2022-10-25T21:08:31.250Z,2.45
2022-10-25T21:11:03.484Z,4.78
2022-10-25T21:13:35.955Z,4.65
2022-10-25T21:16:09.136Z,2.97
2022-10-25T21:18:39.513Z,5.25
2022-10-25T21:21:12.218Z,3.03
2022-10-25T21:23:42.772Z,2.10
2022-10-25T21:26:12.758Z,4.10
2022-10-25T21:28:43.344Z,4.68
2022-10-25T21:31:15.840Z,5.43
2022-10-25T21:33:51.102Z,9.57
2022-10-25T21:36:42.997Z,12.18
2022-10-25T21:39:13.167Z,10.57
2022-10-25T21:41:43.600Z,7.97
2022-10-25T21:44:13.662Z,10.25
2022-10-25T21:47:22.984Z,10.25
2022-10-25T21:49:54.644Z,10.98
2022-10-25T21:52:25.523Z,10.32
2022-10-25T21:54:56.696Z,5.78
2022-10-25T21:57:27.108Z,16.00
2022-10-25T21:59:56.934Z,5.30
2022-10-25T22:02:27.227Z,12.20
2022-10-25T22:04:57.226Z,11.43
2022-10-25T22:07:27.523Z,12.07
2022-10-25T22:09:57.363Z,10.10
2022-10-25T22:12:27.203Z,9.88
2022-10-25T22:14:58.491Z,8.57
2022-10-25T22:17:30.165Z,7.20
2022-10-25T22:20:00.179Z,15.52
2022-10-25T22:22:30.066Z,11.15
2022-10-25T22:24:59.868Z,15.93
2022-10-25T22:27:29.887Z,13.93
2022-10-25T22:30:00.080Z,12.38
2022-10-25T22:32:30.142Z,11.77
2022-10-25T22:35:00.017Z,19.70
2022-10-25T22:37:32.144Z,13.52
2022-10-25T22:40:02.617Z,12.90
2022-10-25T22:42:32.804Z,12.00
2022-10-25T22:45:02.609Z,14.10
2022-10-25T22:47:32.494Z,11.70
2022-10-25T22:50:02.321Z,14.38
2022-10-25T22:52:32.756Z,11.50
2022-10-25T22:55:02.757Z,15.57
2022-10-25T22:57:32.866Z,12.20
2022-10-25T23:00:02.695Z,11.32
2022-10-25T23:02:32.552Z,8.88
2022-10-25T23:05:02.419Z,11.65
2022-10-25T23:07:32.243Z,13.07
2022-10-25T23:10:02.063Z,12.77
2022-10-25T23:12:51.812Z,15.75
2022-10-25T23:15:21.943Z,9.15
2022-10-25T23:17:53.017Z,7.15
2022-10-25T23:20:23.071Z,12.10
2022-10-25T23:22:53.157Z,7.65
2022-10-25T23:25:23.067Z,10.13
2022-10-25T23:28:14.213Z,17.30
2022-10-25T23:30:45.617Z,6.20
2022-10-25T23:36:10.638Z,10.77
2022-10-25T23:38:41.787Z,8.70
2022-10-25T23:41:12.484Z,6.30
2022-10-25T23:43:42.726Z,8.07
2022-10-25T23:46:13.807Z,9.65
2022-10-25T23:48:43.708Z,9.60
2022-10-25T23:51:18.985Z,13.32
2022-10-25T23:53:49.950Z,8.70
2022-10-25T23:56:20.399Z,6.78
2022-10-25T23:58:54.512Z,12.60
